PROFILE

 METAR AND TAF INFORMATION
ADDS - METARS form results

(0606 UTC 19 July 2019)
http://aviationweather.gov/metar/data/
 
LFMT 190600Z AUTO 32005KT CAVOK 25/12 Q1016 NOSIG
LFMT 190530Z AUTO 30005KT CAVOK 23/12 Q1015 NOSIG
TAF LFMT 190200Z 1903/2003 31007KT CAVOK BECMG 1908/1910 19010KT TEMPO 1913/1918 20012G22KT BECMG 1919/1921 VRB04KT BECMG 1922/1924 09008KT BKN005 

 AIRPORT MAP

 RUNWAY INFORMATION
Runway 12L Runway length 8530 ft Runway width 164 ft
Runway elevation 17 ft Runway displaced threshold 0 ft Runway heading 124
Runway 30R Runway length 8530 ft Runway width 164 ft
Runway elevation 6 ft Runway displaced threshold 0 ft Runway heading 304
Runway 12R Runway length 3609 ft Runway width 98 ft
Runway elevation 10 ft Runway displaced threshold 328 ft Runway heading 124
Runway 30L Runway length 3609 ft Runway width 98 ft
Runway elevation 7 ft Runway displaced threshold 0 ft Runway heading 304

 AIRPORT FREQUENCIES
Type APP Name MONTPELLIE Frequency 120.375 MHZ
Type ATIS Name MONTPELLIE Frequency 124.125 MHZ
Type GND Name MONTPELLIE Frequency 121.95 MHZ
Type TWR Name MONTPELLIE Frequency 118.2 MHZ
Type TWR Name MONTPELLIE Frequency 118.775 MHZ

 AIRPORT NEAR NAVIGATION AIDS
Type VOR-DME Name Mediterranee Frequency 114450 KHZ